createdAt,value
2022-10-15T00:02:07.958Z,13.40
2022-10-15T00:07:13.505Z,12.87
2022-10-15T00:12:19.056Z,12.73
2022-10-15T00:17:24.873Z,12.13
2022-10-15T00:22:30.818Z,13.27
2022-10-15T00:27:37.645Z,13.90
2022-10-15T00:32:43.179Z,14.30
2022-10-15T00:37:49.129Z,14.10
2022-10-15T00:42:54.705Z,13.77
2022-10-15T00:48:00.380Z,14.23
2022-10-15T00:53:09.858Z,13.70
2022-10-15T00:58:25.947Z,13.37
2022-10-15T01:03:34.427Z,14.07
2022-10-15T01:08:40.036Z,14.60
2022-10-15T01:14:05.038Z,13.83
2022-10-15T01:19:26.965Z,13.03
2022-10-15T01:25:09.762Z,12.40
2022-10-15T01:30:36.714Z,12.53
2022-10-15T01:35:56.815Z,14.07
2022-10-15T01:41:21.693Z,13.23
2022-10-15T01:46:34.863Z,13.13
2022-10-15T01:51:44.370Z,13.83
2022-10-15T01:56:53.040Z,12.97
2022-10-15T02:01:59.957Z,13.60
2022-10-15T02:07:14.635Z,13.90
2022-10-15T02:12:39.565Z,13.97
2022-10-15T02:18:03.100Z,13.30
2022-10-15T02:23:20.379Z,13.27
2022-10-15T02:28:28.868Z,12.70
2022-10-15T02:33:36.800Z,14.63
2022-10-15T02:38:45.422Z,13.07
2022-10-15T02:43:50.959Z,13.40
2022-10-15T02:48:56.441Z,13.40
2022-10-15T02:54:03.993Z,14.37
2022-10-15T02:59:09.690Z,14.00
2022-10-15T03:04:16.100Z,13.50
2022-10-15T03:09:22.314Z,14.33
2022-10-15T03:19:33.772Z,13.20
2022-10-15T03:24:39.324Z,13.47
2022-10-15T03:29:46.282Z,14.07
2022-10-15T03:34:52.091Z,13.33
2022-10-15T03:39:58.303Z,14.43
2022-10-15T03:45:06.122Z,13.97
2022-10-15T03:50:12.093Z,13.67
2022-10-15T03:55:17.587Z,12.60
2022-10-15T04:00:24.387Z,13.77
2022-10-15T04:05:32.141Z,13.27
2022-10-15T04:10:40.313Z,12.87
2022-10-15T04:15:45.850Z,13.20
2022-10-15T04:20:51.840Z,13.00
2022-10-15T04:26:02.168Z,13.03
2022-10-15T04:31:07.790Z,13.73
2022-10-15T04:36:15.366Z,12.53
2022-10-15T04:41:22.719Z,11.77
2022-10-15T04:46:33.744Z,12.60
2022-10-15T04:51:40.962Z,13.37
2022-10-15T04:56:48.175Z,11.77
2022-10-15T05:01:53.907Z,11.90
2022-10-15T05:06:59.751Z,10.50
2022-10-15T05:12:05.739Z,11.93
2022-10-15T05:17:13.291Z,11.60
2022-10-15T05:22:19.632Z,11.87
2022-10-15T05:27:26.789Z,13.40
2022-10-15T05:32:32.332Z,14.37
2022-10-15T05:37:37.843Z,13.53
2022-10-15T05:42:43.651Z,14.60
2022-10-15T05:47:49.275Z,15.03
2022-10-15T05:52:56.216Z,15.20
2022-10-15T05:58:07.086Z,13.83
2022-10-15T06:03:17.365Z,13.10
2022-10-15T06:08:24.255Z,10.73
2022-10-15T06:13:29.729Z,12.13
2022-10-15T06:18:36.169Z,12.20
2022-10-15T06:23:42.177Z,13.40
2022-10-15T06:28:48.010Z,12.70
2022-10-15T06:33:53.516Z,14.73
2022-10-15T06:38:59.124Z,13.90
2022-10-15T06:44:04.668Z,14.07
2022-10-15T06:49:10.257Z,13.50
2022-10-15T06:54:17.497Z,13.53
2022-10-15T06:59:23.099Z,13.93
2022-10-15T07:04:28.604Z,13.37
2022-10-15T07:09:35.568Z,12.90
2022-10-15T07:14:42.454Z,13.83
2022-10-15T07:19:48.212Z,14.40
2022-10-15T07:24:53.765Z,14.70
2022-10-15T07:29:59.160Z,15.17
2022-10-15T07:35:05.863Z,13.97
2022-10-15T07:40:12.476Z,15.17
2022-10-15T07:45:18.992Z,15.73
2022-10-15T07:50:24.666Z,15.60
2022-10-15T07:55:31.886Z,14.87
2022-10-15T08:00:37.467Z,15.30
2022-10-15T08:05:43.005Z,15.07
2022-10-15T08:10:49.301Z,13.30
2022-10-15T08:15:57.598Z,12.43
2022-10-15T08:21:02.795Z,13.73
2022-10-15T08:26:08.608Z,15.10
2022-10-15T08:31:14.957Z,14.13
2022-10-15T08:36:20.763Z,15.97
2022-10-15T08:41:41.211Z,15.37
2022-10-15T08:46:49.707Z,15.27
2022-10-15T08:51:58.245Z,16.53
2022-10-15T08:57:14.246Z,14.73
2022-10-15T09:02:28.786Z,14.70
2022-10-15T09:07:50.873Z,15.37
2022-10-15T09:13:16.550Z,13.33
2022-10-15T09:18:27.276Z,13.57
2022-10-15T09:23:34.889Z,12.77
2022-10-15T09:29:09.378Z,13.17
2022-10-15T09:34:18.017Z,13.87
2022-10-15T09:39:48.877Z,13.33
2022-10-15T09:44:56.061Z,13.93
2022-10-15T09:50:02.269Z,14.30
2022-10-15T09:55:10.790Z,13.37
2022-10-15T10:00:16.263Z,13.30
2022-10-15T10:05:30.103Z,13.77
2022-10-15T10:10:40.700Z,12.60
2022-10-15T10:15:47.215Z,13.93
2022-10-15T10:21:01.773Z,13.40
2022-10-15T10:26:11.311Z,13.20
2022-10-15T10:31:17.012Z,12.97
2022-10-15T10:36:28.668Z,13.67
2022-10-15T10:41:55.554Z,12.37
2022-10-15T10:47:16.110Z,11.13
2022-10-15T10:52:31.008Z,13.33
2022-10-15T10:57:42.554Z,11.47
2022-10-15T11:02:50.758Z,12.83
2022-10-15T11:07:59.260Z,11.97
2022-10-15T11:13:26.400Z,11.00
2022-10-15T11:18:34.869Z,11.07
2022-10-15T11:23:49.615Z,10.13
2022-10-15T11:29:14.453Z,9.57
2022-10-15T11:34:41.162Z,8.80
2022-10-15T11:39:49.843Z,10.27
2022-10-15T11:45:10.977Z,10.70
2022-10-15T11:50:28.546Z,9.13
2022-10-15T11:55:42.960Z,7.57
2022-10-15T12:00:53.972Z,7.97
2022-10-15T12:06:08.448Z,8.77
2022-10-15T12:11:24.553Z,8.43
2022-10-15T12:16:33.115Z,8.33
2022-10-15T12:21:47.924Z,8.03
2022-10-15T12:26:53.495Z,8.67
2022-10-15T12:31:59.172Z,9.03
2022-10-15T12:37:09.764Z,8.60
2022-10-15T12:42:36.134Z,8.33
2022-10-15T12:47:50.099Z,7.83
2022-10-15T12:53:01.857Z,8.43
2022-10-15T12:58:26.563Z,6.90
2022-10-15T13:03:35.524Z,8.00
2022-10-15T13:08:46.904Z,6.57
2022-10-15T13:13:58.364Z,6.83
2022-10-15T13:19:05.284Z,6.60
2022-10-15T13:24:13.132Z,7.10
2022-10-15T13:29:21.931Z,6.23
2022-10-15T13:34:30.420Z,6.10
2022-10-15T13:39:38.936Z,5.50
2022-10-15T13:44:47.147Z,6.47
2022-10-15T13:49:52.630Z,6.03
2022-10-15T13:54:58.352Z,5.43
2022-10-15T14:00:05.993Z,5.47
2022-10-15T14:05:19.071Z,6.47
2022-10-15T14:10:24.595Z,6.60
2022-10-15T14:15:51.551Z,7.23
2022-10-15T14:20:57.281Z,7.67
2022-10-15T14:26:04.947Z,8.17
2022-10-15T14:31:10.564Z,7.47
2022-10-15T14:36:21.567Z,8.47
2022-10-15T14:41:34.701Z,9.20
2022-10-15T14:46:45.856Z,8.83
2022-10-15T14:52:03.517Z,8.27
2022-10-15T14:57:29.730Z,8.77
2022-10-15T15:02:35.825Z,7.60
2022-10-15T15:07:42.603Z,7.93
2022-10-15T15:12:51.213Z,8.70
2022-10-15T15:17:57.215Z,8.93
2022-10-15T15:23:02.831Z,8.50
2022-10-15T15:28:16.688Z,9.60
2022-10-15T15:33:22.159Z,9.17
2022-10-15T15:38:29.971Z,8.70
2022-10-15T15:43:35.470Z,8.17
2022-10-15T15:48:41.328Z,8.30
2022-10-15T15:53:46.793Z,8.20
2022-10-15T15:58:52.596Z,8.33
2022-10-15T16:03:58.056Z,7.77
2022-10-15T16:09:05.315Z,7.77
2022-10-15T16:14:10.863Z,7.70
2022-10-15T16:19:16.312Z,8.17
2022-10-15T16:24:22.049Z,7.43
2022-10-15T16:29:27.541Z,8.40
2022-10-15T16:34:33.184Z,7.37
2022-10-15T16:39:38.973Z,8.13
2022-10-15T16:44:44.504Z,7.43
2022-10-15T16:49:50.219Z,7.20
2022-10-15T16:54:55.756Z,7.00
2022-10-15T17:00:02.046Z,7.17
2022-10-15T17:05:08.730Z,8.17
2022-10-15T17:10:15.036Z,7.27
2022-10-15T17:15:20.665Z,7.43
2022-10-15T17:20:26.190Z,7.20
2022-10-15T17:25:31.717Z,7.10
2022-10-15T17:30:38.913Z,7.00
2022-10-15T17:35:45.679Z,7.70
2022-10-15T17:40:51.296Z,7.47
2022-10-15T17:46:01.933Z,6.93
2022-10-15T17:51:10.594Z,8.37
2022-10-15T17:56:28.122Z,6.93
2022-10-15T18:06:45.940Z,8.90
2022-10-15T18:11:53.590Z,8.17
2022-10-15T18:16:59.235Z,7.57
2022-10-15T18:22:05.855Z,8.30
2022-10-15T18:27:11.371Z,8.63
2022-10-15T18:32:17.265Z,8.13
2022-10-15T18:37:23.413Z,8.97
2022-10-15T18:42:29.409Z,9.20
2022-10-15T18:47:34.862Z,9.53
2022-10-15T18:52:40.747Z,8.87
2022-10-15T18:57:46.785Z,9.87
2022-10-15T19:02:52.242Z,9.77
2022-10-15T19:07:57.789Z,9.00
2022-10-15T19:13:03.321Z,9.43
2022-10-15T19:18:10.789Z,9.10
2022-10-15T19:23:16.333Z,8.97
2022-10-15T19:28:22.039Z,8.70
2022-10-15T19:33:28.610Z,8.00
2022-10-15T19:38:34.660Z,8.80
2022-10-15T19:43:41.877Z,9.07
2022-10-15T19:48:47.678Z,8.00
2022-10-15T19:53:55.876Z,8.90
2022-10-15T19:59:03.446Z,9.20
2022-10-15T20:04:09.191Z,9.70
2022-10-15T20:09:14.725Z,9.33
2022-10-15T20:14:20.470Z,10.07
2022-10-15T20:19:25.946Z,10.77
2022-10-15T20:24:31.476Z,10.30
2022-10-15T20:29:36.944Z,9.37
2022-10-15T20:34:42.393Z,10.63
2022-10-15T20:39:47.957Z,10.43
2022-10-15T20:44:53.803Z,9.73
2022-10-15T20:49:59.377Z,10.47
2022-10-15T20:55:05.343Z,9.37
2022-10-15T21:00:12.054Z,8.67
2022-10-15T21:05:17.628Z,8.53
2022-10-15T21:10:23.226Z,8.13
2022-10-15T21:15:30.412Z,8.80
2022-10-15T21:20:35.934Z,7.67
2022-10-15T21:25:41.467Z,7.53
2022-10-15T21:30:46.864Z,6.50
2022-10-15T21:35:52.554Z,7.93
2022-10-15T21:40:57.930Z,6.87
2022-10-15T21:46:12.410Z,6.27
2022-10-15T21:51:20.532Z,7.03
2022-10-15T21:56:26.422Z,6.73
2022-10-15T22:01:34.936Z,6.50
2022-10-15T22:06:41.631Z,5.50
2022-10-15T22:11:47.159Z,6.03
2022-10-15T22:16:52.639Z,5.93
2022-10-15T22:21:58.162Z,5.43
2022-10-15T22:27:04.316Z,5.03
2022-10-15T22:32:09.910Z,6.67
2022-10-15T22:37:15.359Z,5.20
2022-10-15T22:42:20.829Z,5.10
2022-10-15T22:47:26.382Z,5.10
2022-10-15T22:52:33.112Z,5.10
2022-10-15T22:57:38.930Z,4.50
2022-10-15T23:02:46.533Z,4.97
2022-10-15T23:07:52.137Z,4.60
2022-10-15T23:12:57.594Z,4.60
2022-10-15T23:18:03.044Z,4.87
2022-10-15T23:23:08.502Z,4.43
2022-10-15T23:28:14.021Z,5.47
2022-10-15T23:33:19.481Z,4.00
2022-10-15T23:38:25.202Z,3.90
2022-10-15T23:43:31.037Z,3.87
2022-10-15T23:48:37.271Z,3.40
2022-10-15T23:58:52.856Z,3.90
